Time;durP1;ratioP1;P1;durP2;ratioP2;P2;SDS_P1;SDS_P2;PMS_P1;PMS_P2;Temp;Humidity;BMP_temperature;BMP_pressure;BME280_temperature;BME280_humidity;BME280_pressure;Samples;Min_cycle;Max_cycle;Signal;HPM_P1;HPM_P2
2022/09/02 00:01:28;;;;;;;4.70;2.05;;;17.20;51.80;;;;;;5055761;28;20036;-47
2022/09/02 00:04:04;;;;;;;0.95;0.60;;;17.00;52.10;;;;;;5053853;28;20106;-46
2022/09/02 00:06:30;;;;;;;3.05;1.10;;;17.20;51.90;;;;;;5054119;28;20025;-47
2022/09/02 00:08:57;;;;;;;0.90;0.90;;;17.00;52.10;;;;;;5055194;28;20025;-46
2022/09/02 00:11:27;;;;;;;1.55;1.02;;;16.90;52.30;;;;;;5053978;28;20104;-46
2022/09/02 00:13:54;;;;;;;7.22;1.00;;;16.80;52.40;;;;;;5053961;28;20029;-47
2022/09/02 00:16:22;;;;;;;1.83;0.98;;;16.80;52.60;;;;;;5054949;28;20542;-46
2022/09/02 00:18:50;;;;;;;5.25;1.45;;;16.80;52.70;;;;;;5053657;28;20512;-46
2022/09/02 00:21:17;;;;;;;2.08;0.95;;;16.80;52.80;;;;;;5053618;28;20067;-45
2022/09/02 00:23:44;;;;;;;9.85;1.33;;;16.80;52.80;;;;;;5054971;28;20053;-48
2022/09/02 00:26:11;;;;;;;3.40;1.25;;;16.70;52.90;;;;;;5055629;28;20071;-48
2022/09/02 00:28:37;;;;;;;4.25;1.20;;;16.70;53.00;;;;;;5054664;28;20473;-49
2022/09/02 00:31:03;;;;;;;4.38;1.30;;;16.70;53.00;;;;;;5055000;28;20032;-45
2022/09/02 00:33:30;;;;;;;4.55;1.08;;;16.70;53.00;;;;;;5053760;28;20381;-49
2022/09/02 00:35:59;;;;;;;3.88;1.30;;;16.70;53.00;;;;;;5054313;28;20132;-47
2022/09/02 00:38:25;;;;;;;1.50;0.98;;;16.60;53.20;;;;;;5054508;28;20021;-47
2022/09/02 00:40:51;;;;;;;1.90;1.15;;;16.60;53.30;;;;;;5054920;28;20377;-47
2022/09/02 00:43:38;;;;;;;2.90;1.02;;;16.50;53.40;;;;;;5054634;28;20021;-47
2022/09/02 00:46:05;;;;;;;2.85;1.02;;;16.50;53.50;;;;;;5054649;28;20029;-50
2022/09/02 00:48:31;;;;;;;1.40;0.73;;;16.50;53.30;;;;;;5053087;28;20029;-47
2022/09/02 00:50:57;;;;;;;2.10;1.15;;;16.50;53.50;;;;;;5054555;28;20036;-47
2022/09/02 00:53:24;;;;;;;4.47;1.20;;;16.40;53.80;;;;;;5054335;28;20025;-48
2022/09/02 00:55:51;;;;;;;1.20;0.63;;;16.30;54.10;;;;;;5054164;28;20454;-46
2022/09/02 00:58:24;;;;;;;2.80;1.05;;;16.40;53.80;;;;;;5054382;28;20234;-48
2022/09/02 01:00:55;;;;;;;3.40;1.17;;;16.40;53.90;;;;;;5052917;28;20112;-46
2022/09/02 01:03:24;;;;;;;3.78;1.20;;;16.30;53.90;;;;;;5052483;28;20039;-46
2022/09/02 01:05:52;;;;;;;1.73;0.90;;;16.30;54.20;;;;;;5053970;28;20031;-46
2022/09/02 01:08:25;;;;;;;1.38;0.75;;;16.30;54.10;;;;;;5053716;28;20031;-46
2022/09/02 01:10:54;;;;;;;2.47;0.80;;;16.30;54.20;;;;;;5053796;28;20036;-45
2022/09/02 01:13:27;;;;;;;4.82;1.02;;;16.30;54.30;;;;;;5054060;28;20021;-47
2022/09/02 01:16:10;;;;;;;2.85;0.93;;;16.30;54.30;;;;;;5053930;28;20533;-46
2022/09/02 01:18:37;;;;;;;1.73;0.80;;;16.20;54.50;;;;;;5054076;28;20028;-45
2022/09/02 01:21:04;;;;;;;2.05;0.93;;;16.10;54.60;;;;;;5053690;28;20080;-45
2022/09/02 01:23:30;;;;;;;3.25;0.90;;;16.20;54.60;;;;;;5053624;28;20021;-46
2022/09/02 01:25:57;;;;;;;0.80;0.80;;;16.20;54.40;;;;;;5052415;28;20037;-46
2022/09/02 01:28:23;;;;;;;2.78;1.17;;;16.20;54.50;;;;;;5053935;28;20033;-46
2022/09/02 01:30:52;;;;;;;3.42;1.70;;;16.20;54.50;;;;;;5052057;28;20079;-46
2022/09/02 01:33:20;;;;;;;4.07;0.93;;;16.00;54.70;;;;;;5053831;28;20053;-46
2022/09/02 01:35:46;;;;;;;1.45;0.95;;;15.90;55.00;;;;;;5053210;28;20048;-46
2022/09/02 01:38:12;;;;;;;2.08;1.02;;;15.90;55.10;;;;;;5053265;28;20028;-47
2022/09/02 01:40:39;;;;;;;8.05;1.02;;;16.00;55.00;;;;;;5053517;28;20025;-46
2022/09/02 01:43:15;;;;;;;1.88;1.40;;;16.00;54.90;;;;;;5053620;28;20051;-47
2022/09/02 01:45:43;;;;;;;2.25;0.70;;;16.00;54.90;;;;;;5053039;28;20381;-45
2022/09/02 01:48:09;;;;;;;1.83;0.95;;;16.00;54.90;;;;;;5053297;28;20021;-47
2022/09/02 01:50:36;;;;;;;3.78;1.63;;;16.00;54.60;;;;;;5053318;28;20428;-47
2022/09/02 01:53:02;;;;;;;1.40;0.68;;;16.10;54.70;;;;;;5053224;28;20047;-46
2022/09/02 01:55:30;;;;;;;2.60;0.85;;;16.10;54.60;;;;;;5053252;28;20021;-48
2022/09/02 01:57:56;;;;;;;1.15;0.80;;;16.00;54.70;;;;;;5053121;28;20606;-46
2022/09/02 02:00:22;;;;;;;1.02;0.82;;;16.10;54.30;;;;;;5053134;28;20152;-46
2022/09/02 02:02:48;;;;;;;2.97;1.05;;;16.10;54.50;;;;;;5052926;28;20016;-45
2022/09/02 02:05:15;;;;;;;3.35;1.00;;;16.10;54.50;;;;;;5051634;28;20469;-46
2022/09/02 02:07:42;;;;;;;1.17;0.57;;;16.00;54.50;;;;;;5052885;28;20473;-45
2022/09/02 02:10:09;;;;;;;0.85;0.60;;;16.00;54.50;;;;;;5052978;28;20044;-46
2022/09/02 02:12:36;;;;;;;2.65;0.70;;;16.10;54.20;;;;;;5053483;28;20096;-44
2022/09/02 02:15:05;;;;;;;3.10;1.02;;;16.00;54.40;;;;;;5052804;28;20059;-45
2022/09/02 02:17:31;;;;;;;1.17;0.70;;;16.10;54.10;;;;;;5052596;28;20037;-47
2022/09/02 02:19:56;;;;;;;4.53;1.00;;;16.00;54.30;;;;;;5052438;28;20078;-47
2022/09/02 02:22:22;;;;;;;2.53;1.35;;;15.90;54.60;;;;;;5052354;28;20044;-46
2022/09/02 02:24:48;;;;;;;0.85;0.57;;;15.90;54.40;;;;;;5051164;28;20018;-45
2022/09/02 02:27:13;;;;;;;1.58;1.05;;;15.90;54.60;;;;;;5052235;28;20036;-46
2022/09/02 02:29:39;;;;;;;3.03;0.80;;;15.90;54.50;;;;;;5052254;28;20036;-49
2022/09/02 02:32:06;;;;;;;1.40;0.90;;;15.80;54.60;;;;;;5052155;28;20156;-45
2022/09/02 02:34:32;;;;;;;2.83;0.65;;;15.80;54.60;;;;;;5052178;28;20029;-45
2022/09/02 02:36:58;;;;;;;1.38;0.70;;;15.80;54.60;;;;;;5050839;28;20131;-45
2022/09/02 02:39:24;;;;;;;2.88;0.60;;;15.80;54.80;;;;;;5052445;28;20155;-47
2022/09/02 02:41:50;;;;;;;4.10;0.70;;;15.70;54.90;;;;;;5052437;28;20025;-46
2022/09/02 02:44:16;;;;;;;3.50;1.00;;;15.70;55.00;;;;;;5052744;28;20100;-46
2022/09/02 02:46:42;;;;;;;1.95;0.75;;;15.70;55.10;;;;;;5052641;28;20436;-46
2022/09/02 02:49:08;;;;;;;2.63;1.05;;;15.70;55.30;;;;;;5052386;28;20043;-46
2022/09/02 02:51:35;;;;;;;3.72;0.68;;;15.60;55.30;;;;;;5052539;28;20068;-46
2022/09/02 02:54:02;;;;;;;1.77;1.00;;;15.50;55.60;;;;;;5052856;28;20451;-46
2022/09/02 02:56:29;;;;;;;1.70;0.90;;;15.50;55.60;;;;;;5052677;28;20325;-46
2022/09/02 02:58:56;;;;;;;2.13;0.80;;;15.50;55.60;;;;;;5055732;28;20481;-46
2022/09/02 03:01:22;;;;;;;1.95;1.00;;;15.50;55.80;;;;;;5056699;28;20029;-46
2022/09/02 03:03:47;;;;;;;1.88;1.08;;;15.30;56.10;;;;;;5056470;28;20033;-47
2022/09/02 03:06:13;;;;;;;3.88;1.00;;;15.40;56.00;;;;;;5056555;28;20162;-46
2022/09/02 03:08:39;;;;;;;0.88;0.70;;;15.40;56.10;;;;;;5056146;28;20039;-46
2022/09/02 03:11:05;;;;;;;4.75;1.20;;;15.40;56.00;;;;;;5056652;28;20036;-46
2022/09/02 03:13:33;;;;;;;2.63;0.85;;;15.30;56.10;;;;;;5056115;28;20040;-46
2022/09/02 03:15:59;;;;;;;3.63;1.23;;;15.40;56.20;;;;;;5055788;28;20033;-46
2022/09/02 03:18:24;;;;;;;4.50;0.93;;;15.30;56.20;;;;;;5055914;28;20025;-45
2022/09/02 03:20:50;;;;;;;6.97;1.10;;;15.30;56.60;;;;;;5056705;28;20021;-46
2022/09/02 03:23:17;;;;;;;1.83;0.85;;;15.30;56.60;;;;;;5056058;28;20474;-46
2022/09/02 03:25:44;;;;;;;1.98;0.82;;;15.30;56.50;;;;;;5055748;28;20033;-45
2022/09/02 03:28:11;;;;;;;1.13;0.85;;;15.30;56.60;;;;;;5055575;28;20100;-46
2022/09/02 03:30:38;;;;;;;1.15;0.95;;;15.20;56.70;;;;;;5055867;28;20083;-46
2022/09/02 03:33:05;;;;;;;0.60;0.50;;;15.20;56.90;;;;;;5055131;28;20064;-46
2022/09/02 03:35:33;;;;;;;1.67;0.80;;;15.10;57.00;;;;;;5055998;28;20045;-47
2022/09/02 03:38:00;;;;;;;2.35;1.25;;;15.10;57.00;;;;;;5054407;28;20021;-48
2022/09/02 03:40:27;;;;;;;2.17;0.77;;;15.10;57.10;;;;;;5054311;28;20496;-46
2022/09/02 03:42:53;;;;;;;2.85;0.88;;;15.10;57.20;;;;;;5055474;28;20051;-46
2022/09/02 03:45:19;;;;;;;1.40;1.17;;;15.10;57.10;;;;;;5055552;28;20112;-46
2022/09/02 03:47:50;;;;;;;2.85;0.98;;;15.10;57.10;;;;;;5055764;28;20047;-45
2022/09/02 03:50:38;;;;;;;1.58;0.60;;;15.10;57.20;;;;;;5055745;28;20029;-46
2022/09/02 03:53:05;;;;;;;1.00;0.90;;;15.10;57.30;;;;;;5055803;28;20377;-45
2022/09/02 03:55:32;;;;;;;3.63;1.08;;;15.10;57.20;;;;;;5055428;28;20492;-46
2022/09/02 03:57:58;;;;;;;2.67;0.80;;;15.10;57.30;;;;;;5054065;28;20106;-45
2022/09/02 04:00:28;;;;;;;2.60;0.88;;;15.10;57.40;;;;;;5055576;28;20091;-45
2022/09/02 04:02:54;;;;;;;;;;;15.10;57.20;;;;;;5056087;28;20365;-46
2022/09/02 04:05:21;;;;;;;4.88;1.17;;;15.10;57.30;;;;;;5055117;28;19909;-46
2022/09/02 04:07:49;;;;;;;0.93;0.68;;;15.10;57.20;;;;;;5055009;28;20022;-46
2022/09/02 04:10:15;;;;;;;5.32;0.93;;;15.20;57.00;;;;;;5055187;28;20473;-47
2022/09/02 04:12:40;;;;;;;3.63;1.27;;;15.20;56.90;;;;;;5055151;28;20128;-45
2022/09/02 04:15:08;;;;;;;4.95;0.98;;;15.30;56.80;;;;;;5055060;28;20459;-47
2022/09/02 04:17:38;;;;;;;2.47;0.50;;;15.30;56.70;;;;;;5054824;28;20032;-46
2022/09/02 04:20:09;;;;;;;2.03;1.20;;;15.30;56.50;;;;;;5055280;28;20419;-46
2022/09/02 04:22:35;;;;;;;3.90;1.20;;;15.30;56.60;;;;;;5055155;28;20100;-46
2022/09/02 04:25:01;;;;;;;3.90;1.08;;;15.30;56.70;;;;;;5054976;28;20029;-46
2022/09/02 04:27:27;;;;;;;1.88;1.02;;;15.30;56.80;;;;;;5053674;28;20029;-46
2022/09/02 04:29:53;;;;;;;9.70;1.95;;;15.20;56.90;;;;;;5055183;28;20028;-48
2022/09/02 18:36:17;;;;;;;6.20;1.98;;;;;;;;;;5090658;27;20390;-48
2022/09/02 18:38:43;;;;;;;3.25;2.15;;;21.50;40.40;;;;;;5091959;28;20020;-51
2022/09/02 18:41:33;;;;;;;4.93;2.58;;;21.50;40.70;;;;;;5073051;28;20035;-47
2022/09/02 18:44:13;;;;;;;;;;;21.50;41.00;;;;;;5091822;28;20020;-46
2022/09/02 18:46:58;;;;;;;9.10;3.20;;;21.50;41.00;;;;;;5090933;28;20264;-49
2022/09/02 18:49:26;;;;;;;2.97;1.60;;;21.50;41.00;;;;;;5090534;28;20074;-46
2022/09/02 18:52:00;;;;;;;14.35;2.30;;;21.40;41.10;;;;;;5072529;28;20020;-49
2022/09/02 18:54:50;;;;;;;2.95;2.33;;;21.30;41.40;;;;;;5089964;28;20110;-47
2022/09/02 18:57:16;;;;;;;;;;;21.30;41.90;;;;;;5090380;28;20047;-48
2022/09/02 19:00:05;;;;;;;4.68;1.67;;;21.20;41.80;;;;;;5089866;28;20352;-48
2022/09/02 19:02:37;;;;;;;2.53;1.80;;;21.10;41.70;;;;;;5089794;28;20082;-47
2022/09/02 19:05:07;;;;;;;4.32;1.90;;;21.10;41.80;;;;;;5089715;28;20028;-49
2022/09/02 19:10:17;;;;;;;6.75;2.45;;;21.20;41.50;;;;;;5090047;28;20442;-48
2022/09/02 19:12:43;;;;;;;4.00;2.05;;;21.10;41.40;;;;;;5089899;28;20445;-48
2022/09/02 19:15:11;;;;;;;4.65;1.75;;;21.20;41.30;;;;;;5071084;28;20036;-46
2022/09/02 19:17:38;;;;;;;6.15;1.88;;;21.10;41.30;;;;;;5089578;28;20390;-49
2022/09/02 19:20:06;;;;;;;3.20;1.83;;;20.90;41.50;;;;;;5090626;28;20029;-47
2022/09/02 19:22:34;;;;;;;6.50;1.63;;;20.90;41.50;;;;;;5072067;28;20031;-47
2022/09/02 19:25:06;;;;;;;3.45;1.70;;;20.80;41.70;;;;;;5089620;28;20028;-48
2022/09/02 19:27:38;;;;;;;4.68;1.42;;;20.90;41.60;;;;;;5071805;28;20105;-50
2022/09/02 19:30:14;;;;;;;6.05;1.65;;;20.90;41.40;;;;;;5089589;28;20058;-47
2022/09/02 19:32:46;;;;;;;3.50;1.92;;;20.90;41.30;;;;;;5089849;28;20113;-50
2022/09/02 19:35:15;;;;;;;3.83;1.60;;;20.90;41.40;;;;;;5071862;28;20040;-47
2022/09/02 19:37:42;;;;;;;1.77;1.42;;;20.90;41.60;;;;;;5089126;28;20021;-49
2022/09/02 19:40:09;;;;;;;3.25;1.83;;;20.80;41.70;;;;;;5089133;28;20025;-47
2022/09/02 19:42:35;;;;;;;9.05;2.22;;;20.80;41.60;;;;;;5070594;28;20027;-46
2022/09/02 19:45:01;;;;;;;13.20;2.22;;;20.80;41.60;;;;;;5089295;28;20513;-47
2022/09/02 19:47:27;;;;;;;4.93;1.80;;;20.70;41.80;;;;;;5057478;28;20052;-47
2022/09/02 19:49:53;;;;;;;4.18;1.63;;;20.70;41.90;;;;;;5040905;28;20135;-47
2022/09/02 19:52:20;;;;;;;6.65;1.58;;;20.60;42.00;;;;;;5075461;28;20033;-47
2022/09/02 19:54:46;;;;;;;2.88;1.70;;;20.50;42.10;;;;;;5057484;28;20033;-47
2022/09/02 19:57:12;;;;;;;6.93;1.52;;;20.60;42.40;;;;;;5075698;28;20036;-47
2022/09/02 19:59:38;;;;;;;2.25;1.30;;;20.50;42.30;;;;;;5075049;28;20099;-46
2022/09/02 20:02:05;;;;;;;2.78;1.50;;;20.50;42.50;;;;;;5075295;28;20044;-47
2022/09/02 20:04:32;;;;;;;3.83;1.52;;;20.40;42.60;;;;;;5057955;28;20492;-46
2022/09/02 20:06:57;;;;;;;6.05;1.48;;;20.40;42.60;;;;;;5057431;28;20032;-47
2022/09/02 20:09:24;;;;;;;5.05;1.70;;;20.30;42.70;;;;;;5075607;28;20032;-47
2022/09/02 20:11:50;;;;;;;2.28;1.30;;;20.30;42.80;;;;;;5040770;28;20109;-47
2022/09/02 20:14:17;;;;;;;6.68;2.03;;;20.30;43.00;;;;;;5075034;28;20036;-48
2022/09/02 20:16:43;;;;;;;4.70;1.77;;;20.30;43.10;;;;;;5075344;28;20130;-47
2022/09/02 20:19:10;;;;;;;24.27;2.13;;;20.30;43.20;;;;;;5075875;28;20092;-48
2022/09/02 20:21:43;;;;;;;2.17;1.30;;;20.20;43.40;;;;;;5075317;28;20025;-48
2022/09/02 20:24:11;;;;;;;3.92;1.42;;;20.10;43.40;;;;;;5075715;28;20335;-47
2022/09/02 20:27:04;;;;;;;3.83;1.63;;;20.10;43.50;;;;;;5057294;28;20033;-47
2022/09/02 20:29:41;;;;;;;3.53;1.73;;;20.10;43.60;;;;;;5075850;28;20036;-47
2022/09/02 20:32:46;;;;;;;6.35;1.50;;;20.10;43.60;;;;;;5074930;28;20024;-47
2022/09/02 20:35:39;;;;;;;5.82;2.95;;;20.00;43.90;;;;;;5074072;28;20124;-46
2022/09/02 20:38:35;;;;;;;7.22;2.83;;;20.00;43.80;;;;;;5074465;28;20021;-47
2022/09/02 20:41:30;;;;;;;2.92;2.00;;;20.00;43.90;;;;;;5074209;28;20048;-48
2022/09/02 20:44:23;;;;;;;3.55;1.40;;;19.90;44.00;;;;;;5053073;28;20102;-50
2022/09/02 20:47:26;;;;;;;3.10;1.98;;;19.80;44.30;;;;;;5074509;28;20024;-46
2022/09/02 20:50:31;;;;;;;5.35;2.83;;;19.80;44.40;;;;;;5074493;28;20073;-49
2022/09/02 20:53:15;;;;;;;6.50;1.75;;;19.80;44.50;;;;;;5074518;28;20024;-47
2022/09/02 20:55:57;;;;;;;3.05;1.85;;;19.70;44.70;;;;;;5073988;28;20028;-47
2022/09/02 20:58:53;;;;;;;2.45;1.30;;;19.70;44.80;;;;;;5073524;28;20017;-47
2022/09/02 21:01:33;;;;;;;8.43;2.30;;;19.70;44.80;;;;;;5074134;28;20027;-46
2022/09/02 21:04:22;;;;;;;12.35;2.08;;;19.70;44.80;;;;;;5074251;28;20013;-47
2022/09/02 21:07:04;;;;;;;2.47;1.38;;;19.70;44.90;;;;;;5074732;28;20415;-49
2022/09/02 21:10:05;;;;;;;5.57;1.83;;;19.60;45.10;;;;;;5056430;28;20429;-46
2022/09/02 21:12:33;;;;;;;2.15;1.35;;;19.60;45.30;;;;;;5056125;28;20103;-49
2022/09/02 21:15:13;;;;;;;4.38;2.15;;;19.60;45.30;;;;;;5074089;28;20170;-49
2022/09/02 21:17:47;;;;;;;3.28;2.08;;;19.50;45.40;;;;;;5056215;28;20103;-48
2022/09/02 21:20:23;;;;;;;4.10;1.83;;;19.40;45.60;;;;;;5073958;28;20029;-46
2022/09/02 21:22:54;;;;;;;7.03;2.88;;;19.40;45.60;;;;;;5074306;28;20024;-47
2022/09/02 21:25:27;;;;;;;2.17;1.48;;;19.40;45.70;;;;;;5056337;28;20411;-47
2022/09/02 21:28:01;;;;;;;2.67;1.80;;;19.30;45.80;;;;;;5074546;28;20025;-47
2022/09/02 21:30:36;;;;;;;4.30;2.05;;;19.30;46.00;;;;;;5073911;28;20388;-47
2022/09/02 21:33:07;;;;;;;2.22;1.50;;;19.30;46.10;;;;;;5055897;28;20027;-47
2022/09/02 21:35:42;;;;;;;3.67;1.40;;;19.30;46.10;;;;;;5073535;28;20050;-47
2022/09/02 21:38:15;;;;;;;7.18;1.80;;;19.30;46.30;;;;;;5073589;28;20380;-47
2022/09/02 21:40:44;;;;;;;3.67;1.40;;;19.20;46.40;;;;;;5073606;28;20354;-46
2022/09/02 21:43:18;;;;;;;8.55;2.65;;;19.10;46.50;;;;;;5073719;28;20099;-46
2022/09/02 21:46:09;;;;;;;6.72;1.70;;;19.10;46.70;;;;;;5073807;28;20074;-47
2022/09/02 21:48:58;;;;;;;2.13;1.40;;;19.00;46.90;;;;;;5073633;28;20027;-46
2022/09/02 21:51:37;;;;;;;2.87;1.80;;;18.90;47.00;;;;;;5073660;28;20024;-47
2022/09/02 21:54:12;;;;;;;6.13;1.60;;;18.90;47.20;;;;;;5073819;28;20025;-45
2022/09/02 21:57:10;;;;;;;2.70;1.60;;;18.90;47.40;;;;;;5055325;28;20570;-47
2022/09/02 22:00:03;;;;;;;5.80;1.63;;;18.80;47.50;;;;;;5072660;28;20044;-47
2022/09/02 22:02:56;;;;;;;6.57;1.88;;;18.80;47.70;;;;;;5055117;28;20162;-46
2022/09/02 22:05:42;;;;;;;4.82;1.50;;;18.80;47.80;;;;;;5073307;28;20024;-46
2022/09/02 22:08:49;;;;;;;2.50;1.50;;;18.70;47.90;;;;;;5073209;28;20431;-46
2022/09/02 22:11:38;;;;;;;3.88;1.83;;;18.70;47.90;;;;;;5039319;28;20028;-47
2022/09/02 22:14:22;;;;;;;3.88;1.98;;;18.70;48.00;;;;;;5073553;28;20050;-45
2022/09/02 22:16:54;;;;;;;6.32;1.90;;;18.70;48.10;;;;;;5055015;28;20021;-46
2022/09/02 22:19:28;;;;;;;4.20;1.75;;;18.60;48.20;;;;;;5072852;28;20028;-46
2022/09/02 22:22:02;;;;;;;6.28;2.65;;;18.60;48.30;;;;;;5072845;28;20032;-47
2022/09/02 22:24:30;;;;;;;3.40;1.60;;;18.50;48.50;;;;;;5072994;28;20055;-47
2022/09/02 22:27:13;;;;;;;3.65;2.20;;;18.40;48.60;;;;;;5073157;28;20052;-47
2022/09/02 22:30:00;;;;;;;5.38;1.83;;;18.40;48.70;;;;;;5039346;28;20033;-46
2022/09/02 22:32:30;;;;;;;6.18;1.63;;;18.40;48.90;;;;;;5055038;28;20440;-46
2022/09/02 22:35:02;;;;;;;4.32;1.60;;;18.30;49.00;;;;;;5072665;28;20041;-46
2022/09/02 22:37:38;;;;;;;6.10;2.10;;;18.30;49.10;;;;;;5055114;28;20033;-47
2022/09/02 22:40:10;;;;;;;3.88;1.77;;;18.20;49.20;;;;;;5073086;28;20020;-46
2022/09/02 22:42:39;;;;;;;4.65;1.52;;;18.30;49.40;;;;;;5056146;28;20112;-46
2022/09/02 22:54:14;;;;;;;5.85;1.63;;;18.10;49.60;;;;;;5073260;28;20031;-46
2022/09/02 22:56:56;;;;;;;3.40;1.40;;;18.10;49.70;;;;;;5054615;28;20036;-47
2022/09/02 22:59:35;;;;;;;4.80;1.85;;;18.10;49.90;;;;;;5072751;28;20553;-47
2022/09/02 23:02:19;;;;;;;5.00;1.85;;;18.00;49.90;;;;;;5073445;28;20017;-47
2022/09/02 23:04:45;;;;;;;3.90;1.40;;;18.10;49.90;;;;;;5054987;28;20020;-49
2022/09/02 23:07:12;;;;;;;2.70;1.15;;;18.10;49.90;;;;;;5073250;28;20024;-46
2022/09/02 23:09:38;;;;;;;1.20;1.10;;;18.00;49.90;;;;;;5072846;28;20516;-46
2022/09/02 23:12:09;;;;;;;3.70;1.67;;;18.00;49.90;;;;;;5054579;28;20489;-47
2022/09/02 23:14:43;;;;;;;3.97;1.92;;;17.80;50.10;;;;;;5054390;28;20028;-47
2022/09/02 23:17:57;;;;;;;2.65;1.63;;;17.80;50.40;;;;;;5072738;28;20516;-47
2022/09/02 23:20:35;;;;;;;4.45;1.67;;;17.80;50.50;;;;;;5072565;28;20040;-48
2022/09/02 23:23:03;;;;;;;4.43;1.50;;;17.80;50.70;;;;;;5076395;28;20021;-48
2022/09/02 23:25:51;;;;;;;3.40;1.40;;;17.80;50.60;;;;;;5076065;28;20056;-48
2022/09/02 23:28:25;;;;;;;2.20;1.50;;;17.70;50.80;;;;;;5058196;28;20028;-46
2022/09/02 23:31:11;;;;;;;3.28;1.42;;;17.70;50.80;;;;;;5076118;28;20037;-47
2022/09/02 23:33:48;;;;;;;4.22;2.13;;;17.70;50.60;;;;;;5076565;28;20050;-46
2022/09/02 23:36:41;;;;;;;3.33;1.92;;;17.70;50.70;;;;;;5035186;28;20054;-46
2022/09/02 23:39:51;;;;;;;1.80;1.15;;;17.70;50.70;;;;;;5035503;28;20044;-47
2022/09/02 23:42:17;;;;;;;2.40;1.35;;;17.60;50.90;;;;;;5036733;28;20078;-47
2022/09/02 23:44:44;;;;;;;1.98;1.35;;;17.60;50.90;;;;;;5036590;28;20029;-47
2022/09/02 23:47:22;;;;;;;2.55;1.10;;;17.60;51.00;;;;;;5036972;28;20150;-46
2022/09/02 23:49:57;;;;;;;3.88;1.30;;;17.50;51.20;;;;;;5036930;28;20060;-48
2022/09/02 23:52:28;;;;;;;2.30;1.42;;;17.50;51.20;;;;;;5036386;28;20017;-46
2022/09/02 23:55:16;;;;;;;5.22;1.80;;;17.40;51.40;;;;;;5036530;28;20432;-47
2022/09/02 23:58:03;;;;;;;4.22;1.52;;;17.40;51.40;;;;;;5036467;28;20045;-46
